Terminal Aerodrome Forecast
Issued by NWS Sterling, VA

Current Version | Previous Version | Graphics & Text | Print | Product List | Glossary On
Versions: 1 2 3 4 5 6 7 8 9 10 11 12 13 14 15 16 17 18 19 20 21 22 23 24 25 26 27 28
518
FTUS41 KLWX 222027 AAA
TAFIAD
TAF AMD
KIAD 222027Z 2220/2324 34006KT 2SM -RA BR OVC008
     FM230700 33004KT 2SM BR OVC008
     FM231400 34006KT 6SM BR BKN035
     FM231900 34007KT P6SM -SHRA SCT035 BKN045
     FM232200 33006KT P6SM SCT035 OVC070=

USA.gov is the U.S. government's official web portal to all federal, state and local government web resources and services.